sensor_id;sensor_type;location;lat;lon;timestamp;temperature;humidity
48912;DHT22;34722;52.108;5.044;2022-12-08T04:30:15;4.30;99.90
48912;DHT22;34722;52.108;5.044;2022-12-08T04:32:43;4.20;99.90
48912;DHT22;34722;52.108;5.044;2022-12-08T04:35:09;4.20;99.90
48912;DHT22;34722;52.108;5.044;2022-12-08T04:37:35;4.20;99.90
48912;DHT22;34722;52.108;5.044;2022-12-08T04:40:00;4.20;99.90
48912;DHT22;34722;52.108;5.044;2022-12-08T04:42:26;4.20;99.90
48912;DHT22;34722;52.108;5.044;2022-12-08T04:44:51;4.20;99.90
48912;DHT22;34722;52.108;5.044;2022-12-08T04:47:17;4.20;99.90
48912;DHT22;34722;52.108;5.044;2022-12-08T04:49:43;4.20;99.90
48912;DHT22;34722;52.108;5.044;2022-12-08T04:52:09;4.30;99.90
48912;DHT22;34722;52.108;5.044;2022-12-08T04:54:35;4.20;99.90
48912;DHT22;34722;52.108;5.044;2022-12-08T04:57:01;4.20;99.90
48912;DHT22;34722;52.108;5.044;2022-12-08T04:59:27;4.20;99.90
48912;DHT22;34722;52.108;5.044;2022-12-08T05:01:53;4.20;99.90
48912;DHT22;34722;52.108;5.044;2022-12-08T05:04:18;4.10;99.90
48912;DHT22;34722;52.108;5.044;2022-12-08T05:06:44;4.10;99.90
48912;DHT22;34722;52.108;5.044;2022-12-08T05:09:12;4.10;99.90
48912;DHT22;34722;52.108;5.044;2022-12-08T05:11:38;4.10;99.90
48912;DHT22;34722;52.108;5.044;2022-12-08T05:14:11;4.10;99.90
48912;DHT22;34722;52.108;5.044;2022-12-08T05:16:37;4.10;99.90
48912;DHT22;34722;52.108;5.044;2022-12-08T05:19:04;4.10;99.90
48912;DHT22;34722;52.108;5.044;2022-12-08T05:21:30;4.10;99.90
48912;DHT22;34722;52.108;5.044;2022-12-08T05:23:55;4.10;99.90
48912;DHT22;34722;52.108;5.044;2022-12-08T05:26:21;4.10;99.90
48912;DHT22;34722;52.108;5.044;2022-12-08T05:28:46;4.00;99.90
48912;DHT22;34722;52.108;5.044;2022-12-08T05:31:14;4.00;99.90
48912;DHT22;34722;52.108;5.044;2022-12-08T05:33:40;3.90;99.90
48912;DHT22;34722;52.108;5.044;2022-12-08T05:36:07;3.80;99.90
48912;DHT22;34722;52.108;5.044;2022-12-08T05:38:33;3.80;99.90
48912;DHT22;34722;52.108;5.044;2022-12-08T05:41:02;3.80;99.90
48912;DHT22;34722;52.108;5.044;2022-12-08T05:43:30;3.80;99.90
48912;DHT22;34722;52.108;5.044;2022-12-08T05:45:56;3.70;99.90
48912;DHT22;34722;52.108;5.044;2022-12-08T05:48:22;3.70;99.90
48912;DHT22;34722;52.108;5.044;2022-12-08T05:50:49;3.70;99.90
48912;DHT22;34722;52.108;5.044;2022-12-08T05:53:19;3.70;99.90
48912;DHT22;34722;52.108;5.044;2022-12-08T05:55:45;3.70;99.90
48912;DHT22;34722;52.108;5.044;2022-12-08T05:58:14;3.60;99.90
48912;DHT22;34722;52.108;5.044;2022-12-08T06:00:40;3.60;99.90
48912;DHT22;34722;52.108;5.044;2022-12-08T06:03:07;3.60;99.90
48912;DHT22;34722;52.108;5.044;2022-12-08T06:05:34;3.60;99.90
48912;DHT22;34722;52.108;5.044;2022-12-08T06:08:00;3.60;99.90
48912;DHT22;34722;52.108;5.044;2022-12-08T06:10:26;3.60;99.90
48912;DHT22;34722;52.108;5.044;2022-12-08T06:12:52;3.60;99.90
48912;DHT22;34722;52.108;5.044;2022-12-08T06:15:18;3.70;99.90
48912;DHT22;34722;52.108;5.044;2022-12-08T06:17:43;3.60;99.90
48912;DHT22;34722;52.108;5.044;2022-12-08T06:20:09;3.60;99.90
48912;DHT22;34722;52.108;5.044;2022-12-08T06:22:35;3.60;99.90
48912;DHT22;34722;52.108;5.044;2022-12-08T06:25:01;3.60;99.90
48912;DHT22;34722;52.108;5.044;2022-12-08T06:27:32;3.50;99.90
48912;DHT22;34722;52.108;5.044;2022-12-08T06:29:58;3.50;99.90
48912;DHT22;34722;52.108;5.044;2022-12-08T06:32:24;3.50;99.90
48912;DHT22;34722;52.108;5.044;2022-12-08T06:34:49;3.50;99.90
48912;DHT22;34722;52.108;5.044;2022-12-08T06:37:15;3.50;99.90
48912;DHT22;34722;52.108;5.044;2022-12-08T06:39:41;3.50;99.90
48912;DHT22;34722;52.108;5.044;2022-12-08T06:42:06;3.50;99.90
48912;DHT22;34722;52.108;5.044;2022-12-08T06:44:54;3.50;99.90
48912;DHT22;34722;52.108;5.044;2022-12-08T06:47:21;3.50;99.90
48912;DHT22;34722;52.108;5.044;2022-12-08T06:49:47;3.50;99.90
48912;DHT22;34722;52.108;5.044;2022-12-08T06:52:12;3.40;99.90
48912;DHT22;34722;52.108;5.044;2022-12-08T06:54:38;3.30;99.90
48912;DHT22;34722;52.108;5.044;2022-12-08T06:57:04;3.30;99.90
48912;DHT22;34722;52.108;5.044;2022-12-08T06:59:29;3.30;99.90
48912;DHT22;34722;52.108;5.044;2022-12-08T07:01:55;3.20;99.90
48912;DHT22;34722;52.108;5.044;2022-12-08T07:04:21;3.20;99.90
48912;DHT22;34722;52.108;5.044;2022-12-08T07:06:47;3.20;99.90
48912;DHT22;34722;52.108;5.044;2022-12-08T07:09:13;3.20;99.90
48912;DHT22;34722;52.108;5.044;2022-12-08T07:11:39;3.10;99.90
48912;DHT22;34722;52.108;5.044;2022-12-08T07:14:05;3.10;99.90
48912;DHT22;34722;52.108;5.044;2022-12-08T07:16:31;3.10;99.90
48912;DHT22;34722;52.108;5.044;2022-12-08T07:18:56;3.10;99.90
48912;DHT22;34722;52.108;5.044;2022-12-08T07:21:22;3.10;99.90
48912;DHT22;34722;52.108;5.044;2022-12-08T07:23:48;3.10;99.90
48912;DHT22;34722;52.108;5.044;2022-12-08T07:26:14;3.00;99.90
48912;DHT22;34722;52.108;5.044;2022-12-08T07:28:41;3.00;99.90
48912;DHT22;34722;52.108;5.044;2022-12-08T07:31:14;3.00;99.90
48912;DHT22;34722;52.108;5.044;2022-12-08T07:33:40;3.00;99.90
48912;DHT22;34722;52.108;5.044;2022-12-08T07:36:07;3.00;99.90
48912;DHT22;34722;52.108;5.044;2022-12-08T07:38:32;2.90;99.90
48912;DHT22;34722;52.108;5.044;2022-12-08T07:40:59;2.90;99.90
48912;DHT22;34722;52.108;5.044;2022-12-08T07:43:24;2.90;99.90
48912;DHT22;34722;52.108;5.044;2022-12-08T07:45:50;3.00;99.90
48912;DHT22;34722;52.108;5.044;2022-12-08T07:48:16;3.00;99.90
48912;DHT22;34722;52.108;5.044;2022-12-08T07:50:42;3.00;99.90
48912;DHT22;34722;52.108;5.044;2022-12-08T07:53:08;3.00;99.90
48912;DHT22;34722;52.108;5.044;2022-12-08T07:55:34;3.00;99.90
48912;DHT22;34722;52.108;5.044;2022-12-08T07:58:03;3.00;99.90
48912;DHT22;34722;52.108;5.044;2022-12-08T08:00:28;3.00;99.90
48912;DHT22;34722;52.108;5.044;2022-12-08T08:02:54;3.00;99.90
48912;DHT22;34722;52.108;5.044;2022-12-08T08:05:21;3.00;99.90
48912;DHT22;34722;52.108;5.044;2022-12-08T08:07:46;3.10;99.90
48912;DHT22;34722;52.108;5.044;2022-12-08T08:10:12;3.00;99.90
48912;DHT22;34722;52.108;5.044;2022-12-08T08:12:38;3.10;99.90
48912;DHT22;34722;52.108;5.044;2022-12-08T08:15:06;3.10;99.90
48912;DHT22;34722;52.108;5.044;2022-12-08T08:17:33;3.10;99.90
48912;DHT22;34722;52.108;5.044;2022-12-08T08:19:59;3.10;99.90
48912;DHT22;34722;52.108;5.044;2022-12-08T08:22:25;3.10;99.90
48912;DHT22;34722;52.108;5.044;2022-12-08T08:24:51;3.20;99.90
48912;DHT22;34722;52.108;5.044;2022-12-08T08:27:17;3.20;99.90
48912;DHT22;34722;52.108;5.044;2022-12-08T08:29:46;3.20;99.90
48912;DHT22;34722;52.108;5.044;2022-12-08T08:32:11;3.20;99.90
48912;DHT22;34722;52.108;5.044;2022-12-08T08:34:37;3.30;99.90
48912;DHT22;34722;52.108;5.044;2022-12-08T08:37:03;3.30;99.90
48912;DHT22;34722;52.108;5.044;2022-12-08T08:39:29;3.30;99.90
48912;DHT22;34722;52.108;5.044;2022-12-08T08:41:56;3.40;99.90
48912;DHT22;34722;52.108;5.044;2022-12-08T08:44:21;3.40;99.90
48912;DHT22;34722;52.108;5.044;2022-12-08T08:46:47;3.40;99.90
48912;DHT22;34722;52.108;5.044;2022-12-08T08:49:13;3.40;99.90
48912;DHT22;34722;52.108;5.044;2022-12-08T08:51:38;3.40;99.90
48912;DHT22;34722;52.108;5.044;2022-12-08T08:54:04;3.50;99.90
48912;DHT22;34722;52.108;5.044;2022-12-08T08:56:30;3.50;99.90
48912;DHT22;34722;52.108;5.044;2022-12-08T08:58:55;3.50;99.90
48912;DHT22;34722;52.108;5.044;2022-12-08T09:01:24;3.50;99.90
48912;DHT22;34722;52.108;5.044;2022-12-08T09:03:50;3.50;99.90
48912;DHT22;34722;52.108;5.044;2022-12-08T09:06:16;3.50;99.90
48912;DHT22;34722;52.108;5.044;2022-12-08T09:08:43;3.50;99.90
48912;DHT22;34722;52.108;5.044;2022-12-08T09:11:09;3.50;99.90
48912;DHT22;34722;52.108;5.044;2022-12-08T09:13:36;3.50;99.90
48912;DHT22;34722;52.108;5.044;2022-12-08T09:16:07;3.60;99.90
48912;DHT22;34722;52.108;5.044;2022-12-08T09:18:33;3.60;99.90
48912;DHT22;34722;52.108;5.044;2022-12-08T09:21:10;3.70;99.90
48912;DHT22;34722;52.108;5.044;2022-12-08T09:23:41;3.70;99.90
48912;DHT22;34722;52.108;5.044;2022-12-08T09:26:11;3.70;99.90
48912;DHT22;34722;52.108;5.044;2022-12-08T09:28:42;3.70;99.90
48912;DHT22;34722;52.108;5.044;2022-12-08T09:31:13;3.70;99.90
48912;DHT22;34722;52.108;5.044;2022-12-08T09:33:40;3.70;99.90
48912;DHT22;34722;52.108;5.044;2022-12-08T09:36:06;3.60;99.90
48912;DHT22;34722;52.108;5.044;2022-12-08T09:38:32;3.60;99.90
48912;DHT22;34722;52.108;5.044;2022-12-08T09:40:58;3.60;99.90
48912;DHT22;34722;52.108;5.044;2022-12-08T09:44:02;3.60;99.90
48912;DHT22;34722;52.108;5.044;2022-12-08T09:46:32;3.60;99.90
48912;DHT22;34722;52.108;5.044;2022-12-08T09:48:59;3.60;99.90
48912;DHT22;34722;52.108;5.044;2022-12-08T09:51:30;3.60;99.90
48912;DHT22;34722;52.108;5.044;2022-12-08T09:54:02;3.60;99.90
48912;DHT22;34722;52.108;5.044;2022-12-08T09:56:33;3.60;99.90
48912;DHT22;34722;52.108;5.044;2022-12-08T10:01:45;3.70;99.90
48912;DHT22;34722;52.108;5.044;2022-12-08T10:04:21;3.70;99.90
48912;DHT22;34722;52.108;5.044;2022-12-08T10:09:39;3.80;99.90
48912;DHT22;34722;52.108;5.044;2022-12-08T10:12:21;3.80;99.90
48912;DHT22;34722;52.108;5.044;2022-12-08T10:17:44;3.80;99.90
48912;DHT22;34722;52.108;5.044;2022-12-08T10:20:20;3.80;99.90
48912;DHT22;34722;52.108;5.044;2022-12-08T10:33:00;3.80;99.90
48912;DHT22;34722;52.108;5.044;2022-12-08T10:35:46;3.80;99.90
48912;DHT22;34722;52.108;5.044;2022-12-08T10:38:28;3.90;99.90
48912;DHT22;34722;52.108;5.044;2022-12-08T10:41:06;3.90;99.90
48912;DHT22;34722;52.108;5.044;2022-12-08T10:43:39;3.80;99.90
48912;DHT22;34722;52.108;5.044;2022-12-08T10:46:24;3.80;99.90
48912;DHT22;34722;52.108;5.044;2022-12-08T10:48:57;3.80;99.90
48912;DHT22;34722;52.108;5.044;2022-12-08T10:51:38;3.80;99.90
48912;DHT22;34722;52.108;5.044;2022-12-08T10:54:05;3.90;99.90
48912;DHT22;34722;52.108;5.044;2022-12-08T10:56:56;3.90;99.90
48912;DHT22;34722;52.108;5.044;2022-12-08T10:59:23;3.90;99.90
48912;DHT22;34722;52.108;5.044;2022-12-08T11:01:54;3.90;99.90
48912;DHT22;34722;52.108;5.044;2022-12-08T11:04:35;3.90;99.90
48912;DHT22;34722;52.108;5.044;2022-12-08T11:07:05;3.90;99.90
48912;DHT22;34722;52.108;5.044;2022-12-08T11:09:44;3.80;99.90
48912;DHT22;34722;52.108;5.044;2022-12-08T11:12:14;3.80;99.90
48912;DHT22;34722;52.108;5.044;2022-12-08T11:14:53;3.80;99.90
48912;DHT22;34722;52.108;5.044;2022-12-08T11:17:26;3.70;99.90
48912;DHT22;34722;52.108;5.044;2022-12-08T11:20:24;3.70;99.90
48912;DHT22;34722;52.108;5.044;2022-12-08T11:22:53;3.70;99.90
48912;DHT22;34722;52.108;5.044;2022-12-08T11:25:22;3.80;99.90
48912;DHT22;34722;52.108;5.044;2022-12-08T11:27:56;3.90;99.90
48912;DHT22;34722;52.108;5.044;2022-12-08T11:30:45;3.90;99.90
48912;DHT22;34722;52.108;5.044;2022-12-08T11:33:21;4.00;99.90
48912;DHT22;34722;52.108;5.044;2022-12-08T11:36:01;4.00;99.90
48912;DHT22;34722;52.108;5.044;2022-12-08T11:38:28;4.10;99.90
48912;DHT22;34722;52.108;5.044;2022-12-08T11:41:06;4.10;99.90
48912;DHT22;34722;52.108;5.044;2022-12-08T11:46:16;4.10;99.90
48912;DHT22;34722;52.108;5.044;2022-12-08T11:56:36;4.20;99.90
48912;DHT22;34722;52.108;5.044;2022-12-08T12:01:45;4.30;99.90
48912;DHT22;34722;52.108;5.044;2022-12-08T12:04:16;4.30;99.90
48912;DHT22;34722;52.108;5.044;2022-12-08T12:20:22;4.30;99.90
48912;DHT22;34722;52.108;5.044;2022-12-08T12:23:04;4.30;99.90
48912;DHT22;34722;52.108;5.044;2022-12-08T12:25:32;4.20;99.90
48912;DHT22;34722;52.108;5.044;2022-12-08T12:28:02;4.00;99.90
48912;DHT22;34722;52.108;5.044;2022-12-08T12:30:58;4.00;99.90
48912;DHT22;34722;52.108;5.044;2022-12-08T12:37:06;3.90;99.90
48912;DHT22;34722;52.108;5.044;2022-12-08T12:45:34;3.90;99.90
48912;DHT22;34722;52.108;5.044;2022-12-08T12:56:01;4.40;99.90
48912;DHT22;34722;52.108;5.044;2022-12-08T12:58:37;4.50;99.90
48912;DHT22;34722;52.108;5.044;2022-12-08T13:03:43;4.70;99.90
48912;DHT22;34722;52.108;5.044;2022-12-08T13:06:11;4.70;99.90
48912;DHT22;34722;52.108;5.044;2022-12-08T13:08:50;4.70;99.90
48912;DHT22;34722;52.108;5.044;2022-12-08T13:11:17;4.50;99.90
48912;DHT22;34722;52.108;5.044;2022-12-08T13:14:15;4.50;99.90
48912;DHT22;34722;52.108;5.044;2022-12-08T13:16:53;4.50;99.90
48912;DHT22;34722;52.108;5.044;2022-12-08T13:19:32;4.60;99.90
48912;DHT22;34722;52.108;5.044;2022-12-08T13:30:46;4.60;99.90
48912;DHT22;34722;52.108;5.044;2022-12-08T13:33:27;4.50;99.90
48912;DHT22;34722;52.108;5.044;2022-12-08T13:36:09;4.50;99.90
48912;DHT22;34722;52.108;5.044;2022-12-08T13:38:37;4.50;99.90
48912;DHT22;34722;52.108;5.044;2022-12-08T13:41:10;4.40;99.90
48912;DHT22;34722;52.108;5.044;2022-12-08T13:43:51;4.40;99.90
48912;DHT22;34722;52.108;5.044;2022-12-08T13:46:39;4.30;99.90
48912;DHT22;34722;52.108;5.044;2022-12-08T13:49:15;4.30;99.90
48912;DHT22;34722;52.108;5.044;2022-12-08T13:51:45;4.30;99.90
48912;DHT22;34722;52.108;5.044;2022-12-08T13:54:34;4.30;99.90
48912;DHT22;34722;52.108;5.044;2022-12-08T13:57:12;4.30;99.90
48912;DHT22;34722;52.108;5.044;2022-12-08T13:59:45;4.30;99.90
48912;DHT22;34722;52.108;5.044;2022-12-08T14:02:36;4.30;99.90
48912;DHT22;34722;52.108;5.044;2022-12-08T14:08:50;4.10;99.90
48912;DHT22;34722;52.108;5.044;2022-12-08T14:11:39;4.10;99.90
48912;DHT22;34722;52.108;5.044;2022-12-08T14:14:55;4.10;99.90
48912;DHT22;34722;52.108;5.044;2022-12-08T14:17:05;4.10;99.90
48912;DHT22;34722;52.108;5.044;2022-12-08T14:22:55;4.30;99.90
48912;DHT22;34722;52.108;5.044;2022-12-08T14:25:28;4.20;99.90
48912;DHT22;34722;52.108;5.044;2022-12-08T14:28:09;4.20;99.90
48912;DHT22;34722;52.108;5.044;2022-12-08T14:30:47;4.30;99.90
48912;DHT22;34722;52.108;5.044;2022-12-08T14:33:35;4.30;99.90
48912;DHT22;34722;52.108;5.044;2022-12-08T14:36:08;4.20;99.90
48912;DHT22;34722;52.108;5.044;2022-12-08T14:38:48;4.20;99.90
48912;DHT22;34722;52.108;5.044;2022-12-08T14:41:36;4.20;99.90
48912;DHT22;34722;52.108;5.044;2022-12-08T14:44:30;4.10;99.90
48912;DHT22;34722;52.108;5.044;2022-12-08T14:47:06;4.10;99.90
48912;DHT22;34722;52.108;5.044;2022-12-08T14:50:04;4.00;99.90
48912;DHT22;34722;52.108;5.044;2022-12-08T14:53:15;3.80;99.90
48912;DHT22;34722;52.108;5.044;2022-12-08T14:55:56;3.70;99.90
48912;DHT22;34722;52.108;5.044;2022-12-08T15:01:40;3.60;99.90
48912;DHT22;34722;52.108;5.044;2022-12-08T15:04:29;3.70;99.90
48912;DHT22;34722;52.108;5.044;2022-12-08T15:07:10;3.60;99.90
48912;DHT22;34722;52.108;5.044;2022-12-08T15:14:41;3.40;99.90
48912;DHT22;34722;52.108;5.044;2022-12-08T15:20:21;3.30;99.90
48912;DHT22;34722;52.108;5.044;2022-12-08T15:22:53;3.20;99.90
48912;DHT22;34722;52.108;5.044;2022-12-08T15:25:23;3.30;99.90
48912;DHT22;34722;52.108;5.044;2022-12-08T15:27:49;3.30;99.90
48912;DHT22;34722;52.108;5.044;2022-12-08T15:30:18;3.40;99.90
48912;DHT22;34722;52.108;5.044;2022-12-08T15:32:44;3.30;99.90
48912;DHT22;34722;52.108;5.044;2022-12-08T15:35:13;3.40;99.90
48912;DHT22;34722;52.108;5.044;2022-12-08T15:37:40;3.40;99.90
48912;DHT22;34722;52.108;5.044;2022-12-08T15:40:06;3.40;99.90
48912;DHT22;34722;52.108;5.044;2022-12-08T15:42:32;3.40;99.90
48912;DHT22;34722;52.108;5.044;2022-12-08T15:44:58;3.30;99.90
48912;DHT22;34722;52.108;5.044;2022-12-08T15:47:23;3.30;99.90
48912;DHT22;34722;52.108;5.044;2022-12-08T15:49:51;3.30;99.90
48912;DHT22;34722;52.108;5.044;2022-12-08T15:54:55;3.40;99.90
48912;DHT22;34722;52.108;5.044;2022-12-08T15:57:29;3.30;99.90
48912;DHT22;34722;52.108;5.044;2022-12-08T15:59:55;3.20;99.90
48912;DHT22;34722;52.108;5.044;2022-12-08T16:02:21;3.20;99.90
48912;DHT22;34722;52.108;5.044;2022-12-08T16:04:47;3.10;99.90
48912;DHT22;34722;52.108;5.044;2022-12-08T16:07:25;3.00;99.90
48912;DHT22;34722;52.108;5.044;2022-12-08T16:09:52;2.90;99.90
